sensor_id;sensor_type;location;lat;lon;timestamp;pressure;altitude;pressure_sealevel;temperature;humidity
77281;BME280;66339;47.262;17.144;2023-05-07T00:01:18;100254.37;;;20.93;54.15
77281;BME280;66339;47.262;17.144;2023-05-07T00:03:50;100252.50;;;20.93;54.06
77281;BME280;66339;47.262;17.144;2023-05-07T00:06:21;100250.09;;;20.92;54.09
77281;BME280;66339;47.262;17.144;2023-05-07T00:08:58;100244.19;;;20.90;54.14
77281;BME280;66339;47.262;17.144;2023-05-07T00:11:29;100249.31;;;20.91;54.10
77281;BME280;66339;47.262;17.144;2023-05-07T00:13:59;100243.94;;;20.91;54.08
77281;BME280;66339;47.262;17.144;2023-05-07T00:16:32;100243.94;;;20.91;54.07
77281;BME280;66339;47.262;17.144;2023-05-07T00:19:00;100242.31;;;20.90;54.04
77281;BME280;66339;47.262;17.144;2023-05-07T00:21:34;100238.56;;;20.91;54.07
77281;BME280;66339;47.262;17.144;2023-05-07T00:24:02;100235.34;;;20.89;54.11
77281;BME280;66339;47.262;17.144;2023-05-07T00:26:30;100237.75;;;20.91;54.03
77281;BME280;66339;47.262;17.144;2023-05-07T00:28:59;100238.31;;;20.88;54.08
77281;BME280;66339;47.262;17.144;2023-05-07T00:31:28;100240.72;;;20.89;54.01
77281;BME280;66339;47.262;17.144;2023-05-07T00:33:56;100228.38;;;20.88;54.03
77281;BME280;66339;47.262;17.144;2023-05-07T00:36:33;100223.56;;;20.85;54.06
77281;BME280;66339;47.262;17.144;2023-05-07T00:39:01;100221.66;;;20.86;54.03
77281;BME280;66339;47.262;17.144;2023-05-07T00:41:36;100225.16;;;20.86;54.08
77281;BME280;66339;47.262;17.144;2023-05-07T00:44:03;100224.34;;;20.86;54.05
77281;BME280;66339;47.262;17.144;2023-05-07T00:46:37;100231.62;;;20.85;54.15
77281;BME280;66339;47.262;17.144;2023-05-07T00:49:08;100223.84;;;20.83;54.16
77281;BME280;66339;47.262;17.144;2023-05-07T00:51:40;100223.34;;;20.81;54.24
77281;BME280;66339;47.262;17.144;2023-05-07T00:54:11;100227.34;;;20.84;54.15
77281;BME280;66339;47.262;17.144;2023-05-07T00:56:46;100237.00;;;20.85;54.15
77281;BME280;66339;47.262;17.144;2023-05-07T00:59:17;100221.97;;;20.84;54.15
77281;BME280;66339;47.262;17.144;2023-05-07T01:01:49;100227.34;;;20.84;54.18
77281;BME280;66339;47.262;17.144;2023-05-07T01:04:19;100221.97;;;20.84;54.12
77281;BME280;66339;47.262;17.144;2023-05-07T01:06:48;100217.69;;;20.83;54.12
77281;BME280;66339;47.262;17.144;2023-05-07T01:09:19;100224.91;;;20.82;54.14
77281;BME280;66339;47.262;17.144;2023-05-07T01:11:47;100224.13;;;20.82;54.18
77281;BME280;66339;47.262;17.144;2023-05-07T01:14:18;100222.53;;;20.81;54.13
77281;BME280;66339;47.262;17.144;2023-05-07T01:16:52;100217.94;;;20.81;54.20
77281;BME280;66339;47.262;17.144;2023-05-07T01:19:23;100220.94;;;20.80;54.15
77281;BME280;66339;47.262;17.144;2023-05-07T01:21:55;100217.16;;;20.81;54.13
77281;BME280;66339;47.262;17.144;2023-05-07T01:24:28;100227.13;;;20.80;54.08
77281;BME280;66339;47.262;17.144;2023-05-07T01:27:03;100216.66;;;20.79;54.06
77281;BME280;66339;47.262;17.144;2023-05-07T01:29:35;100223.09;;;20.78;54.16
77281;BME280;66339;47.262;17.144;2023-05-07T01:32:05;100222.84;;;20.79;54.09
77281;BME280;66339;47.262;17.144;2023-05-07T01:34:34;100224.72;;;20.79;54.11
77281;BME280;66339;47.262;17.144;2023-05-07T01:37:09;100219.34;;;20.79;54.11
77281;BME280;66339;47.262;17.144;2023-05-07T01:39:37;100224.72;;;20.79;54.13
77281;BME280;66339;47.262;17.144;2023-05-07T01:42:06;100218.53;;;20.78;54.13
77281;BME280;66339;47.262;17.144;2023-05-07T01:44:34;100212.34;;;20.78;54.14
77281;BME280;66339;47.262;17.144;2023-05-07T01:47:05;100217.72;;;20.78;54.06
77281;BME280;66339;47.262;17.144;2023-05-07T01:49:42;100216.94;;;20.77;54.08
77281;BME280;66339;47.262;17.144;2023-05-07T01:52:13;100210.75;;;20.77;54.08
77281;BME280;66339;47.262;17.144;2023-05-07T01:54:46;100216.94;;;20.77;54.12
77281;BME280;66339;47.262;17.144;2023-05-07T01:57:18;100216.13;;;20.77;54.13
77281;BME280;66339;47.262;17.144;2023-05-07T01:59:47;100217.22;;;20.76;54.11
77281;BME280;66339;47.262;17.144;2023-05-07T02:02:16;100214.53;;;20.76;54.16
77281;BME280;66339;47.262;17.144;2023-05-07T02:04:47;100209.97;;;20.76;54.10
77281;BME280;66339;47.262;17.144;2023-05-07T02:07:18;100209.16;;;20.76;54.10
77281;BME280;66339;47.262;17.144;2023-05-07T02:09:45;100209.16;;;20.76;54.09
77281;BME280;66339;47.262;17.144;2023-05-07T02:12:13;100212.91;;;20.75;54.10
77281;BME280;66339;47.262;17.144;2023-05-07T02:14:45;100215.59;;;20.75;54.10
77281;BME280;66339;47.262;17.144;2023-05-07T02:17:17;100218.28;;;20.75;54.20
77281;BME280;66339;47.262;17.144;2023-05-07T02:19:50;100220.97;;;20.75;54.17
77281;BME280;66339;47.262;17.144;2023-05-07T02:22:20;100220.97;;;20.75;54.16
77281;BME280;66339;47.262;17.144;2023-05-07T02:24:49;100221.28;;;20.73;54.18
77281;BME280;66339;47.262;17.144;2023-05-07T02:27:16;100222.06;;;20.74;54.17
77281;BME280;66339;47.262;17.144;2023-05-07T02:29:47;100215.09;;;20.73;54.18
77281;BME280;66339;47.262;17.144;2023-05-07T02:32:17;100222.88;;;20.74;54.09
77281;BME280;66339;47.262;17.144;2023-05-07T02:34:50;100233.63;;;20.74;54.09
77281;BME280;66339;47.262;17.144;2023-05-07T02:37:19;100231.22;;;20.73;54.06
77281;BME280;66339;47.262;17.144;2023-05-07T02:39:50;100225.06;;;20.72;54.05
77281;BME280;66339;47.262;17.144;2023-05-07T02:42:23;100221.84;;;20.70;54.04
77281;BME280;66339;47.262;17.144;2023-05-07T02:44:50;100235.81;;;20.72;54.00
77281;BME280;66339;47.262;17.144;2023-05-07T02:47:18;100224.25;;;20.72;54.06
77281;BME280;66339;47.262;17.144;2023-05-07T02:49:51;100229.91;;;20.70;53.99
77281;BME280;66339;47.262;17.144;2023-05-07T02:52:22;100223.72;;;20.70;53.99
77281;BME280;66339;47.262;17.144;2023-05-07T02:54:50;100222.12;;;20.69;53.98
77281;BME280;66339;47.262;17.144;2023-05-07T02:57:20;100219.44;;;20.69;54.04
77281;BME280;66339;47.262;17.144;2023-05-07T02:59:48;100217.25;;;20.71;53.89
77281;BME280;66339;47.262;17.144;2023-05-07T03:02:25;100223.47;;;20.71;53.87
77281;BME280;66339;47.262;17.144;2023-05-07T03:04:55;100237.16;;;20.70;53.83
77281;BME280;66339;47.262;17.144;2023-05-07T03:07:29;100230.69;;;20.71;53.89
77281;BME280;66339;47.262;17.144;2023-05-07T03:09:59;100221.03;;;20.70;53.88
77281;BME280;66339;47.262;17.144;2023-05-07T03:12:26;100222.44;;;20.67;53.95
77281;BME280;66339;47.262;17.144;2023-05-07T03:14:57;100239.34;;;20.68;53.88
77281;BME280;66339;47.262;17.144;2023-05-07T03:17:29;100232.88;;;20.69;53.86
77281;BME280;66339;47.262;17.144;2023-05-07T03:19:58;100228.59;;;20.68;53.94
77281;BME280;66339;47.262;17.144;2023-05-07T03:22:26;100234.78;;;20.68;53.90
77281;BME280;66339;47.262;17.144;2023-05-07T03:25:07;100250.09;;;20.68;53.88
77281;BME280;66339;47.262;17.144;2023-05-07T03:27:34;100249.31;;;20.67;53.90
77281;BME280;66339;47.262;17.144;2023-05-07T03:30:05;100245.78;;;20.67;53.94
77281;BME280;66339;47.262;17.144;2023-05-07T03:32:39;100246.87;;;20.66;53.96
77281;BME280;66339;47.262;17.144;2023-05-07T03:35:09;100246.87;;;20.66;54.00
77281;BME280;66339;47.262;17.144;2023-05-07T03:37:41;100248.47;;;20.67;53.95
77281;BME280;66339;47.262;17.144;2023-05-07T03:40:12;100238.03;;;20.65;53.92
77281;BME280;66339;47.262;17.144;2023-05-07T03:42:43;100246.87;;;20.66;53.90
77281;BME280;66339;47.262;17.144;2023-05-07T03:45:17;100247.19;;;20.64;53.96
77281;BME280;66339;47.262;17.144;2023-05-07T03:47:44;100257.94;;;20.64;53.98
77281;BME280;66339;47.262;17.144;2023-05-07T03:50:18;100255.25;;;20.64;53.96
77281;BME280;66339;47.262;17.144;2023-05-07T03:52:54;100258.72;;;20.65;53.97
77281;BME280;66339;47.262;17.144;2023-05-07T03:55:23;100264.09;;;20.65;53.92
77281;BME280;66339;47.262;17.144;2023-05-07T03:57:58;100269.75;;;20.63;53.96
77281;BME280;66339;47.262;17.144;2023-05-07T04:00:33;100274.31;;;20.63;53.99
77281;BME280;66339;47.262;17.144;2023-05-07T04:03:02;100275.13;;;20.63;54.02
77281;BME280;66339;47.262;17.144;2023-05-07T04:05:35;100271.94;;;20.61;54.06
77281;BME280;66339;47.262;17.144;2023-05-07T04:08:04;100277.31;;;20.61;54.06
77281;BME280;66339;47.262;17.144;2023-05-07T04:10:32;100282.69;;;20.61;54.02
77281;BME280;66339;47.262;17.144;2023-05-07T04:13:08;100283.47;;;20.62;53.99
77281;BME280;66339;47.262;17.144;2023-05-07T04:15:39;100290.44;;;20.63;54.03
77281;BME280;66339;47.262;17.144;2023-05-07T04:18:13;100298.00;;;20.61;54.05
77281;BME280;66339;47.262;17.144;2023-05-07T04:20:44;100299.59;;;20.62;54.08
77281;BME280;66339;47.262;17.144;2023-05-07T04:23:14;100304.19;;;20.61;54.01
77281;BME280;66339;47.262;17.144;2023-05-07T04:25:41;100314.63;;;20.63;53.99
77281;BME280;66339;47.262;17.144;2023-05-07T04:28:15;100312.25;;;20.61;54.04
77281;BME280;66339;47.262;17.144;2023-05-07T04:30:42;100315.72;;;20.62;54.02
77281;BME280;66339;47.262;17.144;2023-05-07T04:33:15;100308.75;;;20.61;54.07
77281;BME280;66339;47.262;17.144;2023-05-07T04:35:42;100319.50;;;20.61;54.05
77281;BME280;66339;47.262;17.144;2023-05-07T04:38:12;100314.13;;;20.61;54.04
77281;BME280;66339;47.262;17.144;2023-05-07T04:40:40;100312.00;;;20.57;54.10
77281;BME280;66339;47.262;17.144;2023-05-07T04:43:10;100313.59;;;20.58;54.08
77281;BME280;66339;47.262;17.144;2023-05-07T04:45:40;100318.47;;;20.56;54.12
77281;BME280;66339;47.262;17.144;2023-05-07T04:48:11;100314.69;;;20.57;54.10
77281;BME280;66339;47.262;17.144;2023-05-07T04:50:38;100313.91;;;20.57;54.09
77281;BME280;66339;47.262;17.144;2023-05-07T04:53:14;100318.47;;;20.56;54.10
77281;BME280;66339;47.262;17.144;2023-05-07T04:55:42;100315.00;;;20.56;54.16
77281;BME280;66339;47.262;17.144;2023-05-07T04:58:10;100323.56;;;20.58;53.93
77281;BME280;66339;47.262;17.144;2023-05-07T05:00:43;100325.97;;;20.59;53.89
77281;BME280;66339;47.262;17.144;2023-05-07T05:03:13;100332.41;;;20.58;53.89
77281;BME280;66339;47.262;17.144;2023-05-07T05:05:44;100330.81;;;20.57;53.76
77281;BME280;66339;47.262;17.144;2023-05-07T05:08:12;100328.66;;;20.59;53.72
77281;BME280;66339;47.262;17.144;2023-05-07T05:10:39;100332.66;;;20.62;53.72
77281;BME280;66339;47.262;17.144;2023-05-07T05:13:09;100325.91;;;20.65;53.69
77281;BME280;66339;47.262;17.144;2023-05-07T05:15:42;100326.41;;;20.67;53.76
77281;BME280;66339;47.262;17.144;2023-05-07T05:18:15;100336.63;;;20.70;53.79
77281;BME280;66339;47.262;17.144;2023-05-07T05:20:45;100337.94;;;20.72;53.79
77281;BME280;66339;47.262;17.144;2023-05-07T05:23:11;100340.34;;;20.74;53.83
77281;BME280;66339;47.262;17.144;2023-05-07T05:25:38;100346.75;;;20.78;53.77
77281;BME280;66339;47.262;17.144;2023-05-07T05:28:06;100347.53;;;20.83;53.68
77281;BME280;66339;47.262;17.144;2023-05-07T05:30:38;100343.44;;;20.86;53.79
77281;BME280;66339;47.262;17.144;2023-05-07T05:33:05;100348.25;;;20.89;53.95
77281;BME280;66339;47.262;17.144;2023-05-07T05:35:38;100356.63;;;20.88;54.15
77281;BME280;66339;47.262;17.144;2023-05-07T05:38:12;100356.38;;;20.84;54.38
77281;BME280;66339;47.262;17.144;2023-05-07T05:40:42;100359.56;;;20.86;54.53
77281;BME280;66339;47.262;17.144;2023-05-07T05:43:13;100355.81;;;20.87;54.73
77281;BME280;66339;47.262;17.144;2023-05-07T05:45:46;100359.13;;;20.79;54.89
77281;BME280;66339;47.262;17.144;2023-05-07T05:48:20;100365.63;;;20.73;55.17
77281;BME280;66339;47.262;17.144;2023-05-07T05:50:46;100365.53;;;20.83;54.98
77281;BME280;66339;47.262;17.144;2023-05-07T05:53:16;100364.59;;;20.69;55.38
77281;BME280;66339;47.262;17.144;2023-05-07T05:55:46;100361.34;;;20.67;55.53
77281;BME280;66339;47.262;17.144;2023-05-07T05:58:15;100365.66;;;20.68;55.57
77281;BME280;66339;47.262;17.144;2023-05-07T06:00:43;100367.22;;;20.74;55.67
77281;BME280;66339;47.262;17.144;2023-05-07T06:03:12;100360.16;;;20.83;55.57
77281;BME280;66339;47.262;17.144;2023-05-07T06:05:39;100356.88;;;20.86;55.33
77281;BME280;66339;47.262;17.144;2023-05-07T06:08:10;100364.38;;;20.89;55.11
77281;BME280;66339;47.262;17.144;2023-05-07T06:10:43;100362.72;;;20.93;54.90
77281;BME280;66339;47.262;17.144;2023-05-07T06:13:12;100357.88;;;20.95;54.75
77281;BME280;66339;47.262;17.144;2023-05-07T06:15:42;100355.19;;;20.95;54.85
77281;BME280;66339;47.262;17.144;2023-05-07T06:18:15;100357.59;;;20.97;54.54
77281;BME280;66339;47.262;17.144;2023-05-07T06:20:54;100360.03;;;20.93;54.64
77281;BME280;66339;47.262;17.144;2023-05-07T06:23:21;100357.88;;;20.95;54.51
77281;BME280;66339;47.262;17.144;2023-05-07T06:25:49;100362.66;;;20.98;54.49
77281;BME280;66339;47.262;17.144;2023-05-07T06:28:23;100353.62;;;20.89;54.66
77281;BME280;66339;47.262;17.144;2023-05-07T06:30:51;100364.62;;;20.93;54.36
77281;BME280;66339;47.262;17.144;2023-05-07T06:33:18;100361.44;;;20.91;54.72
77281;BME280;66339;47.262;17.144;2023-05-07T06:35:45;100359.00;;;20.89;54.91
77281;BME280;66339;47.262;17.144;2023-05-07T06:38:12;100357.66;;;20.92;55.05
77281;BME280;66339;47.262;17.144;2023-05-07T06:40:41;100362.22;;;20.91;55.02
77281;BME280;66339;47.262;17.144;2023-05-07T06:43:12;100361.44;;;20.91;54.86
77281;BME280;66339;47.262;17.144;2023-05-07T06:45:42;100362.22;;;20.91;54.95
77281;BME280;66339;47.262;17.144;2023-05-07T06:48:11;100364.34;;;20.94;54.86
77281;BME280;66339;47.262;17.144;2023-05-07T06:50:38;100363.25;;;20.95;54.84
77281;BME280;66339;47.262;17.144;2023-05-07T06:53:05;100370.25;;;20.96;54.88
77281;BME280;66339;47.262;17.144;2023-05-07T06:55:32;100371.34;;;20.95;55.05
77281;BME280;66339;47.262;17.144;2023-05-07T06:57:58;100375.63;;;20.96;55.10
77281;BME280;66339;47.262;17.144;2023-05-07T07:00:29;100384.47;;;20.97;55.10
77281;BME280;66339;47.262;17.144;2023-05-07T07:03:04;100380.69;;;20.98;55.13
77281;BME280;66339;47.262;17.144;2023-05-07T07:05:33;100382.59;;;20.97;55.16
77281;BME280;66339;47.262;17.144;2023-05-07T07:08:07;100384.78;;;20.95;55.27
77281;BME280;66339;47.262;17.144;2023-05-07T07:10:40;100385.56;;;20.96;55.18
77281;BME280;66339;47.262;17.144;2023-05-07T07:13:14;100400.09;;;20.95;55.25
77281;BME280;66339;47.262;17.144;2023-05-07T07:15:40;100397.13;;;20.96;55.38
77281;BME280;66339;47.262;17.144;2023-05-07T07:18:11;100392.87;;;20.90;55.76
77281;BME280;66339;47.262;17.144;2023-05-07T07:20:38;100400.91;;;20.95;55.58
77281;BME280;66339;47.262;17.144;2023-05-07T07:23:06;100397.69;;;20.93;55.70
77281;BME280;66339;47.262;17.144;2023-05-07T07:25:35;100399.28;;;20.94;55.73
77281;BME280;66339;47.262;17.144;2023-05-07T07:28:03;100394.72;;;20.95;55.17
77281;BME280;66339;47.262;17.144;2023-05-07T07:30:35;100385.00;;;20.99;55.06
77281;BME280;66339;47.262;17.144;2023-05-07T07:33:10;100383.63;;;21.01;55.53
77281;BME280;66339;47.262;17.144;2023-05-07T07:35:40;100384.72;;;21.00;55.58
77281;BME280;66339;47.262;17.144;2023-05-07T07:38:10;100385.81;;;20.99;55.24
77281;BME280;66339;47.262;17.144;2023-05-07T07:40:38;100385.75;;;21.04;54.99
77281;BME280;66339;47.262;17.144;2023-05-07T07:43:08;100380.66;;;21.03;55.07
77281;BME280;66339;47.262;17.144;2023-05-07T07:45:35;100386.00;;;21.08;54.97
77281;BME280;66339;47.262;17.144;2023-05-07T07:48:10;100380.91;;;21.06;54.97
77281;BME280;66339;47.262;17.144;2023-05-07T07:50:40;100381.94;;;21.11;54.82
77281;BME280;66339;47.262;17.144;2023-05-07T07:53:11;100383.28;;;21.08;54.84
77281;BME280;66339;47.262;17.144;2023-05-07T07:55:44;100387.31;;;21.11;54.72
77281;BME280;66339;47.262;17.144;2023-05-07T07:58:11;100379.50;;;21.09;54.75
77281;BME280;66339;47.262;17.144;2023-05-07T08:00:41;100379.25;;;21.11;54.66
77281;BME280;66339;47.262;17.144;2023-05-07T08:03:13;100376.56;;;21.11;54.69
77281;BME280;66339;47.262;17.144;2023-05-07T08:05:44;100379.75;;;21.13;54.47
77281;BME280;66339;47.262;17.144;2023-05-07T08:08:16;100384.09;;;21.08;54.66
77281;BME280;66339;47.262;17.144;2023-05-07T08:10:51;100384.09;;;21.08;54.72
77281;BME280;66339;47.262;17.144;2023-05-07T08:13:21;100378.72;;;21.08;54.72
77281;BME280;66339;47.262;17.144;2023-05-07T08:15:49;100386.78;;;21.08;54.72
77281;BME280;66339;47.262;17.144;2023-05-07T08:18:16;100387.88;;;21.07;54.74
77281;BME280;66339;47.262;17.144;2023-05-07T08:20:49;100389.47;;;21.08;54.64
77281;BME280;66339;47.262;17.144;2023-05-07T08:23:19;100394.84;;;21.08;54.67
77281;BME280;66339;47.262;17.144;2023-05-07T08:25:52;100387.09;;;21.07;54.70
77281;BME280;66339;47.262;17.144;2023-05-07T08:28:21;100391.06;;;21.09;54.53
77281;BME280;66339;47.262;17.144;2023-05-07T08:30:52;100391.66;;;21.06;54.66
77281;BME280;66339;47.262;17.144;2023-05-07T08:33:22;100386.53;;;21.05;55.03
77281;BME280;66339;47.262;17.144;2023-05-07T08:35:49;100392.97;;;21.09;55.14
77281;BME280;66339;47.262;17.144;2023-05-07T08:38:17;100401.31;;;21.07;55.37
77281;BME280;66339;47.262;17.144;2023-05-07T08:40:45;100393.75;;;21.09;55.35
77281;BME280;66339;47.262;17.144;2023-05-07T08:43:14;100406.66;;;21.13;55.29
77281;BME280;66339;47.262;17.144;2023-05-07T08:45:47;100401.25;;;21.13;55.64
77281;BME280;66339;47.262;17.144;2023-05-07T08:48:18;100403.34;;;21.21;55.37
77281;BME280;66339;47.262;17.144;2023-05-07T08:50:51;100407.13;;;21.20;55.56
77281;BME280;66339;47.262;17.144;2023-05-07T08:53:21;100400.06;;;21.24;55.42
77281;BME280;66339;47.262;17.144;2023-05-07T08:55:48;100403.28;;;21.26;55.23
77281;BME280;66339;47.262;17.144;2023-05-07T08:58:24;100408.66;;;21.26;55.13
77281;BME280;66339;47.262;17.144;2023-05-07T09:00:55;100412.97;;;21.27;55.01
77281;BME280;66339;47.262;17.144;2023-05-07T09:03:25;100412.44;;;21.25;55.02
77281;BME280;66339;47.262;17.144;2023-05-07T09:05:55;100396.28;;;21.25;54.95
77281;BME280;66339;47.262;17.144;2023-05-07T09:08:32;100400.88;;;21.24;54.92
77281;BME280;66339;47.262;17.144;2023-05-07T09:11:05;100400.56;;;21.26;54.81
77281;BME280;66339;47.262;17.144;2023-05-07T09:13:35;100410.78;;;21.29;54.67
77281;BME280;66339;47.262;17.144;2023-05-07T09:16:12;100406.50;;;21.28;54.70
77281;BME280;66339;47.262;17.144;2023-05-07T09:18:50;100406.78;;;21.26;54.86
77281;BME280;66339;47.262;17.144;2023-05-07T09:21:21;100419.38;;;21.31;55.56
77281;BME280;66339;47.262;17.144;2023-05-07T09:23:54;100425.62;;;21.26;55.60
77281;BME280;66339;47.262;17.144;2023-05-07T09:26:25;100418.34;;;21.27;55.56
77281;BME280;66339;47.262;17.144;2023-05-07T09:28:58;100416.72;;;21.26;55.50
77281;BME280;66339;47.262;17.144;2023-05-07T09:31:26;100419.16;;;21.27;55.45
77281;BME280;66339;47.262;17.144;2023-05-07T09:34:00;100418.34;;;21.27;55.29
77281;BME280;66339;47.262;17.144;2023-05-07T09:36:31;100411.06;;;21.27;55.15
77281;BME280;66339;47.262;17.144;2023-05-07T09:39:04;100418.34;;;21.27;55.09
77281;BME280;66339;47.262;17.144;2023-05-07T09:41:43;100414.03;;;21.26;55.11
77281;BME280;66339;47.262;17.144;2023-05-07T09:44:15;100411.62;;;21.24;55.09
77281;BME280;66339;47.262;17.144;2023-05-07T09:46:51;100416.22;;;21.24;55.10
77281;BME280;66339;47.262;17.144;2023-05-07T09:49:23;100413.53;;;21.24;55.13
77281;BME280;66339;47.262;17.144;2023-05-07T09:52:02;100416.50;;;21.22;55.15
77281;BME280;66339;47.262;17.144;2023-05-07T09:54:43;100414.09;;;21.21;55.10
77281;BME280;66339;47.262;17.144;2023-05-07T09:57:14;100413.53;;;21.24;55.04
77281;BME280;66339;47.262;17.144;2023-05-07T09:59:59;100414.62;;;21.23;55.21
77281;BME280;66339;47.262;17.144;2023-05-07T10:02:32;100426.44;;;21.22;54.95
77281;BME280;66339;47.262;17.144;2023-05-07T10:05:07;100424.84;;;21.21;55.13
77281;BME280;66339;47.262;17.144;2023-05-07T10:07:36;100413.53;;;21.24;55.21
77281;BME280;66339;47.262;17.144;2023-05-07T10:10:06;100414.31;;;21.24;55.12
77281;BME280;66339;47.262;17.144;2023-05-07T10:12:33;100413.53;;;21.24;55.04
77281;BME280;66339;47.262;17.144;2023-05-07T10:15:01;100415.91;;;21.25;55.08
77281;BME280;66339;47.262;17.144;2023-05-07T10:17:28;100417.81;;;21.25;55.13
77281;BME280;66339;47.262;17.144;2023-05-07T10:19:58;100415.12;;;21.25;55.23
77281;BME280;66339;47.262;17.144;2023-05-07T10:22:27;100418.59;;;21.25;55.22
77281;BME280;66339;47.262;17.144;2023-05-07T10:24:55;100409.19;;;21.28;55.26
77281;BME280;66339;47.262;17.144;2023-05-07T10:27:33;100417.00;;;21.24;55.56
77281;BME280;66339;47.262;17.144;2023-05-07T10:32:40;100412.41;;;21.30;55.36
77281;BME280;66339;47.262;17.144;2023-05-07T10:35:23;100409.41;;;21.31;55.63
77281;BME280;66339;47.262;17.144;2023-05-07T10:37:52;100420.97;;;21.32;55.76
77281;BME280;66339;47.262;17.144;2023-05-07T10:40:26;100420.69;;;21.39;55.65
77281;BME280;66339;47.262;17.144;2023-05-07T10:42:58;100413.09;;;21.41;55.44
77281;BME280;66339;47.262;17.144;2023-05-07T10:45:42;100405.56;;;21.43;55.38
77281;BME280;66339;47.262;17.144;2023-05-07T10:48:16;100412.78;;;21.47;55.39
77281;BME280;66339;47.262;17.144;2023-05-07T10:53:42;100412.19;;;21.50;55.47
77281;BME280;66339;47.262;17.144;2023-05-07T10:58:49;100409.44;;;21.55;55.63
77281;BME280;66339;47.262;17.144;2023-05-07T11:01:49;100413.22;;;21.54;55.50
77281;BME280;66339;47.262;17.144;2023-05-07T11:04:16;100414.03;;;21.55;55.48
77281;BME280;66339;47.262;17.144;2023-05-07T11:09:55;100400.84;;;21.53;55.39
77281;BME280;66339;47.262;17.144;2023-05-07T11:17:56;100400.84;;;21.53;55.22
77281;BME280;66339;47.262;17.144;2023-05-07T11:26:02;100400.84;;;21.53;55.07
77281;BME280;66339;47.262;17.144;2023-05-07T11:28:33;100391.69;;;21.54;55.00
77281;BME280;66339;47.262;17.144;2023-05-07T11:31:09;100395.47;;;21.53;54.95
77281;BME280;66339;47.262;17.144;2023-05-07T11:33:43;100399.22;;;21.58;54.88
77281;BME280;66339;47.262;17.144;2023-05-07T11:36:13;100400.81;;;21.59;54.86
77281;BME280;66339;47.262;17.144;2023-05-07T11:38:45;100395.12;;;21.60;54.66
77281;BME280;66339;47.262;17.144;2023-05-07T11:41:12;100403.41;;;21.64;54.55
77281;BME280;66339;47.262;17.144;2023-05-07T11:43:56;100397.47;;;21.67;54.42
77281;BME280;66339;47.262;17.144;2023-05-07T11:46:34;100388.59;;;21.66;54.40
77281;BME280;66339;47.262;17.144;2023-05-07T11:49:05;100391.00;;;21.68;54.29
77281;BME280;66339;47.262;17.144;2023-05-07T11:51:41;100390.75;;;21.64;54.53
77281;BME280;66339;47.262;17.144;2023-05-07T11:54:09;100388.28;;;21.68;54.24
77281;BME280;66339;47.262;17.144;2023-05-07T11:56:39;100389.72;;;21.60;54.45
77281;BME280;66339;47.262;17.144;2023-05-07T11:59:05;100389.41;;;21.67;54.45
77281;BME280;66339;47.262;17.144;2023-05-07T12:01:34;100383.44;;;21.70;54.50
77281;BME280;66339;47.262;17.144;2023-05-07T12:04:02;100391.50;;;21.70;54.55
77281;BME280;66339;47.262;17.144;2023-05-07T12:06:35;100390.41;;;21.71;54.56
77281;BME280;66339;47.262;17.144;2023-05-07T12:09:06;100386.63;;;21.72;54.53
77281;BME280;66339;47.262;17.144;2023-05-07T12:11:34;100388.44;;;21.76;54.37
77281;BME280;66339;47.262;17.144;2023-05-07T12:14:11;100392.75;;;21.77;54.34
77281;BME280;66339;47.262;17.144;2023-05-07T12:16:43;100390.78;;;21.83;54.08
77281;BME280;66339;47.262;17.144;2023-05-07T12:19:14;100386.78;;;21.80;53.99
77281;BME280;66339;47.262;17.144;2023-05-07T12:21:47;100388.66;;;21.80;54.03
77281;BME280;66339;47.262;17.144;2023-05-07T12:24:14;100387.81;;;21.85;53.89
77281;BME280;66339;47.262;17.144;2023-05-07T12:26:44;100386.22;;;21.84;53.99
77281;BME280;66339;47.262;17.144;2023-05-07T12:29:14;100387.31;;;21.83;53.97
77281;BME280;66339;47.262;17.144;2023-05-07T12:31:44;100389.19;;;21.82;53.97
77281;BME280;66339;47.262;17.144;2023-05-07T12:34:15;100387.00;;;21.84;53.88
77281;BME280;66339;47.262;17.144;2023-05-07T12:36:42;100386.22;;;21.84;53.80
77281;BME280;66339;47.262;17.144;2023-05-07T12:39:13;100390.28;;;21.81;53.69
77281;BME280;66339;47.262;17.144;2023-05-07T12:41:57;100381.16;;;21.77;53.73
77281;BME280;66339;47.262;17.144;2023-05-07T12:44:33;100374.72;;;21.78;53.74
77281;BME280;66339;47.262;17.144;2023-05-07T12:47:03;100379.87;;;21.74;53.90
77281;BME280;66339;47.262;17.144;2023-05-07T12:49:31;100374.50;;;21.74;53.85
77281;BME280;66339;47.262;17.144;2023-05-07T12:51:58;100364.53;;;21.75;53.82
77281;BME280;66339;47.262;17.144;2023-05-07T12:54:28;100363.41;;;21.76;53.71
77281;BME280;66339;47.262;17.144;2023-05-07T12:57:03;100371.00;;;21.74;53.71
77281;BME280;66339;47.262;17.144;2023-05-07T12:59:38;100366.69;;;21.73;53.79
77281;BME280;66339;47.262;17.144;2023-05-07T13:02:08;100369.44;;;21.68;54.08
77281;BME280;66339;47.262;17.144;2023-05-07T13:04:40;100366.13;;;21.76;54.10
77281;BME280;66339;47.262;17.144;2023-05-07T13:07:11;100369.31;;;21.78;54.08
77281;BME280;66339;47.262;17.144;2023-05-07T13:09:45;100367.72;;;21.77;54.14
77281;BME280;66339;47.262;17.144;2023-05-07T13:12:15;100363.94;;;21.78;54.29
77281;BME280;66339;47.262;17.144;2023-05-07T13:14:50;100361.53;;;21.76;54.28
77281;BME280;66339;47.262;17.144;2023-05-07T13:17:20;100359.63;;;21.77;54.19
77281;BME280;66339;47.262;17.144;2023-05-07T13:19:53;100349.97;;;21.76;54.24
77281;BME280;66339;47.262;17.144;2023-05-07T13:22:30;100349.97;;;21.76;54.28